Portada
METAR-TAF:

METAR-TAF

Aeropuertos :

Logroño, España

Aeropuerto de Logroño-Agoncillo

latitud: 42-27N, longitud: 002-20W, altitud: 353 m

Observación

El informe se hizo hace 26 minutos, a las 09:00 UTC
Viento 2 kt con dirección variable
Temperatura 17°C
Humedad 48%
Presión 1016 hPa
Visibilidad 10 km o más
sin nubes por debajo de 1500 m y sin presencia de cumulonimbus.

METAR: LELO 240900Z VRB02KT CAVOK 17/06 Q1016

Hora: 11:26 (09:26 UTC)

Pronóstico

El informe se hizo hace 1 hora y 26 minutos, a las 08:00 UTC
Pronóstico válido del 24 a las 09 UTC al 24 a las 18 UTC
Viento 2 kt con dirección variable
Visibilidad 10 km o más
sin nubes por debajo de 1500 m y sin presencia de cumulonimbus.

TAF: LELO 240800Z 2409/2418 VRB02KT CAVOK

Observaciones y pronósticos meteorológicos de más de 4000 aeropuertos (mensajes METAR y TAF).

Los puntos amarillos y rojos representan las estaciones disponibles.

Ponga el ratón en el punto deseado para ver el nombre de la estación.

Haga clic para ver las observaciones y los pronósticos meteorológicos.

Para cambiar el mapa : haga clic en los botones verdes con una cruz de color negro para hacer un zoom, en el botón verde con un guión para alejar o en las flechas verdes para mapas adyacentes.


METAR-TAF: